Terminal Aerodrome Forecast
Issued by NWS Aberdeen, SD

Home | Current Version | Previous Version | Text Only | Print | Product List | Glossary On
Versions: 1 2 3 4 5 6 7 8 9 10 11 12 13 14 15 16 17 18 19 20 21 22 23 24 25 26 27 28 29 30 31 32 33 34 35 36 37 38
000
FTUS43 KABR 261422 AAB
TAFABR
TAF AMD
KABR 261422Z 2614/2712 15006KT P6SM TS BKN050CB
     FM261435 10005KT P6SM SHRA VCTS BKN050CB
     FM261500 17004KT P6SM SCT200
     FM262100 VRB03KT P6SM VCTS BKN250CB
     FM262300 06006KT P6SM BKN250
     FM270200 03005KT P6SM SHRA VCTS BKN090CB
     FM270500 04004KT P6SM BKN110
     FM271100 02005KT P6SM BKN025=

USA.gov is the U.S. government's official web portal to all federal, state and local government web resources and services.